Time;durP1;ratioP1;P1;durP2;ratioP2;P2;SDS_P1;SDS_P2;PMS_P1;PMS_P2;Temp;Humidity;BMP_temperature;BMP_pressure;BME280_temperature;BME280_humidity;BME280_pressure;Samples;Min_cycle;Max_cycle;Signal;HPM_P1;HPM_P2
2024/01/27 00:01:52;;;;;;;40.10;25.83;;;;;;;1.44;100.00;85015.41;5113047;28;20282;-63
2024/01/27 00:04:20;;;;;;;44.83;26.17;;;;;;;1.40;100.00;85617.50;5113141;28;20535;-64
2024/01/27 00:06:47;;;;;;;37.93;25.80;;;;;;;1.52;100.00;87394.44;5112845;28;20230;-64
2024/01/27 00:09:14;;;;;;;41.63;23.73;;;;;;;1.62;100.00;88861.72;5112991;28;20268;-63
2024/01/27 00:11:41;;;;;;;34.63;21.60;;;;;;;1.80;100.00;89644.88;5112627;28;20236;-64
2024/01/27 00:14:08;;;;;;;36.13;22.27;;;;;;;1.85;100.00;89859.88;5113044;28;20214;-64
2024/01/27 00:16:35;;;;;;;37.63;22.47;;;;;;;1.91;100.00;88708.94;5112862;28;20256;-63
2024/01/27 00:19:02;;;;;;;36.90;22.40;;;;;;;1.94;100.00;88572.00;5112856;28;20633;-63
2024/01/27 00:21:31;;;;;;;35.13;22.93;;;;;;;1.84;100.00;91828.03;5112834;28;20236;-63
2024/01/27 00:24:00;;;;;;;36.43;22.03;;;;;;;1.80;100.00;93787.38;5112752;28;20618;-64
2024/01/27 00:26:28;;;;;;;34.93;21.37;;;;;;;1.80;100.00;93154.78;5112328;28;20190;-63
2024/01/27 00:28:55;;;;;;;38.53;22.17;;;;;;;1.92;100.00;91559.09;5112742;28;20203;-65
2024/01/27 00:31:22;;;;;;;34.70;20.10;;;;;;;1.95;100.00;90296.81;5112578;28;20287;-63
2024/01/27 00:33:49;;;;;;;30.83;20.13;;;;;;;1.89;100.00;89299.06;5112304;28;20188;-64
2024/01/27 00:36:16;;;;;;;30.23;20.43;;;;;;;2.06;100.00;88802.63;5112806;28;20248;-64
2024/01/27 00:38:45;;;;;;;30.17;20.40;;;;;;;2.05;100.00;89149.97;5112466;28;20179;-63
2024/01/27 00:41:17;;;;;;;33.77;21.17;;;;;;;1.97;100.00;91937.13;5112267;28;20187;-63
2024/01/27 00:43:44;;;;;;;32.50;20.30;;;;;;;1.96;100.00;93797.97;5112268;27;20184;-63
2024/01/27 00:46:12;;;;;;;32.60;21.27;;;;;;;1.97;100.00;93874.72;5112472;28;20622;-63
2024/01/27 00:48:39;;;;;;;31.60;20.40;;;;;;;1.95;100.00;93480.00;5112618;28;20256;-63
2024/01/27 00:51:06;;;;;;;33.40;20.40;;;;;;;1.87;100.00;94071.19;5112228;28;20244;-63
2024/01/27 00:53:33;;;;;;;28.47;19.70;;;;;;;1.72;100.00;93397.50;5112523;28;20707;-63
2024/01/27 00:56:02;;;;;;;34.70;20.13;;;;;;;1.49;100.00;92906.19;5112171;28;20708;-63
2024/01/27 00:58:29;;;;;;;33.63;19.23;;;;;;;1.66;100.00;94321.41;5112019;28;20205;-63
2024/01/27 01:00:57;;;;;;;38.60;20.37;;;;;;;1.57;100.00;93550.47;5112421;28;20179;-63
2024/01/27 01:03:24;;;;;;;29.50;20.07;;;;;;;1.59;100.00;92842.97;5112584;28;20252;-62
2024/01/27 01:05:51;;;;;;;30.43;19.37;;;;;;;1.49;100.00;92076.09;5112559;28;20184;-64
2024/01/27 01:08:18;;;;;;;32.67;19.37;;;;;;;1.35;100.00;90539.44;5115956;28;20215;-64
2024/01/27 01:10:45;;;;;;;24.10;18.63;;;;;;;1.48;100.00;88974.19;5116194;28;20187;-63
2024/01/27 01:13:14;;;;;;;28.57;19.00;;;;;;;1.44;100.00;89064.78;5116130;28;20187;-63
2024/01/27 01:15:41;;;;;;;38.00;20.23;;;;;;;1.52;100.00;87124.31;5116509;28;20183;-63
2024/01/27 01:18:08;;;;;;;37.77;20.60;;;;;;;1.59;100.00;85173.63;5116577;28;20188;-62
2024/01/27 01:20:35;;;;;;;34.37;19.90;;;;;;;1.45;100.00;85407.88;5115925;28;20245;-64
2024/01/27 01:23:02;;;;;;;32.27;20.17;;;;;;;1.63;100.00;84856.50;5115922;28;20194;-63
2024/01/27 01:25:30;;;;;;;29.93;19.10;;;;;;;1.57;100.00;85142.94;5116034;28;20266;-63
2024/01/27 01:27:57;;;;;;;32.23;19.20;;;;;;;1.64;100.00;85618.31;5116100;28;20573;-63
2024/01/27 01:30:26;;;;;;;27.47;18.77;;;;;;;1.41;100.00;88792.50;5115812;28;20248;-64
2024/01/27 01:32:53;;;;;;;33.73;19.10;;;;;;;1.43;100.00;89037.22;5116189;28;20631;-62
2024/01/27 01:35:20;;;;;;;30.83;19.23;;;;;;;1.29;100.00;89484.44;5115825;28;20223;-63
2024/01/27 01:37:48;;;;;;;37.37;22.00;;;;;;;1.04;100.00;86652.78;5115704;28;20248;-64
2024/01/27 01:40:15;;;;;;;44.67;20.17;;;;;;;1.05;100.00;84377.47;5115507;28;20718;-65
2024/01/27 01:42:42;;;;;;;39.10;23.47;;;;;;;1.18;100.00;81384.25;5116177;28;20187;-64
2024/01/27 01:45:12;;;;;;;42.47;23.27;;;;;;;1.21;100.00;80651.19;5115850;28;20722;-63
2024/01/27 01:47:40;;;;;;;46.37;24.93;;;;;;;1.29;100.00;79704.59;5115725;28;20207;-65
2024/01/27 01:50:09;;;;;;;39.37;22.23;;;;;;;1.37;100.00;78641.06;5115622;28;20183;-64
2024/01/27 01:52:37;;;;;;;40.30;22.70;;;;;;;1.40;100.00;78777.25;5115352;28;20187;-62
2024/01/27 01:55:04;;;;;;;43.93;25.63;;;;;;;1.37;100.00;79559.44;5115467;28;20231;-63
2024/01/27 01:57:32;;;;;;;42.07;23.83;;;;;;;1.32;100.00;79918.44;5115793;28;20234;-63
2024/01/27 01:59:59;;;;;;;52.83;26.40;;;;;;;1.54;100.00;79738.28;5115211;28;20244;-62
2024/01/27 02:02:26;;;;;;;44.93;24.67;;;;;;;1.31;100.00;80088.31;5115421;28;20224;-63
2024/01/27 02:04:54;;;;;;;49.00;27.53;;;;;;;1.43;100.00;81759.56;5115592;28;20607;-64
2024/01/27 02:07:21;;;;;;;48.80;25.57;;;;;;;1.33;100.00;82529.91;5115322;28;20213;-63
2024/01/27 02:09:48;;;;;;;50.93;26.90;;;;;;;1.35;100.00;83561.28;5115344;28;20184;-63
2024/01/27 02:12:15;;;;;;;50.37;26.63;;;;;;;1.32;100.00;84088.91;5115281;28;20207;-62
2024/01/27 02:14:42;;;;;;;51.20;26.67;;;;;;;1.27;100.00;83115.47;5115255;28;20634;-63
2024/01/27 02:17:09;;;;;;;52.60;27.50;;;;;;;1.21;100.00;82462.44;5114468;28;20180;-62
2024/01/27 02:19:37;;;;;;;53.63;27.47;;;;;;;1.20;100.00;82267.00;5115011;28;20555;-63
2024/01/27 02:22:08;;;;;;;47.17;26.97;;;;;;;1.16;100.00;79861.13;5114723;28;20196;-62
2024/01/27 02:24:36;;;;;;;49.53;26.87;;;;;;;1.34;100.00;79583.72;5115219;28;20561;-64
2024/01/27 02:27:04;;;;;;;52.70;27.00;;;;;;;1.33;100.00;79368.31;5114784;28;20183;-63
2024/01/27 02:29:31;;;;;;;61.70;29.23;;;;;;;1.43;100.00;77885.03;5114642;28;20238;-64
2024/01/27 02:31:58;;;;;;;53.87;27.27;;;;;;;1.16;100.00;77769.53;5114732;28;20184;-63
2024/01/27 02:34:25;;;;;;;54.17;28.60;;;;;;;1.40;100.00;76808.84;5115024;28;20233;-62
2024/01/27 02:36:52;;;;;;;57.67;27.80;;;;;;;1.20;100.00;78253.06;5114570;28;20184;-62
2024/01/27 02:39:19;;;;;;;48.00;27.37;;;;;;;1.22;100.00;79506.16;5114457;28;20183;-63
2024/01/27 02:41:47;;;;;;;57.93;27.37;;;;;;;1.33;100.00;79080.59;5114877;28;20638;-65
2024/01/27 02:44:14;;;;;;;48.43;26.40;;;;;;;1.26;100.00;80459.16;5114482;28;20213;-64
2024/01/27 02:46:42;;;;;;;51.00;27.43;;;;;;;1.18;100.00;79619.66;5114396;28;20184;-64
2024/01/27 02:49:09;;;;;;;44.47;26.33;;;;;;;1.38;100.00;79681.72;5114368;28;20239;-64
2024/01/27 02:51:36;;;;;;;42.10;24.97;;;;;;;1.37;100.00;79711.25;5114222;28;20241;-64
2024/01/27 02:54:03;;;;;;;49.87;25.23;;;;;;;1.44;100.00;80205.66;5114471;28;20184;-62
2024/01/27 02:56:30;;;;;;;47.23;25.33;;;;;;;1.16;100.00;80518.31;5114339;28;20183;-63
2024/01/27 02:58:59;;;;;;;57.17;26.53;;;;;;;1.41;100.00;82819.66;5114314;28;20180;-65
2024/01/27 03:01:26;;;;;;;50.50;24.33;;;;;;;1.28;100.00;85394.44;5114503;28;20187;-62
2024/01/27 03:03:53;;;;;;;47.73;24.77;;;;;;;1.21;100.00;86874.94;5113873;28;20543;-64
2024/01/27 03:06:20;;;;;;;38.97;23.10;;;;;;;1.17;100.00;88413.31;5114282;28;20629;-64
2024/01/27 03:08:47;;;;;;;37.97;22.53;;;;;;;1.00;100.00;90156.69;5113897;28;20298;-63
2024/01/27 03:11:14;;;;;;;46.13;25.20;;;;;;;0.96;100.00;87377.28;5113805;28;20183;-63
2024/01/27 03:13:45;;;;;;;39.53;23.43;;;;;;;0.98;100.00;84662.16;5113981;28;20248;-63
2024/01/27 03:16:14;;;;;;;38.70;23.07;;;;;;;0.77;100.00;85289.19;5113771;28;20192;-63
2024/01/27 03:18:41;;;;;;;38.77;22.80;;;;;;;0.79;100.00;86673.44;5113578;28;20176;-62
2024/01/27 03:21:08;;;;;;;29.47;20.43;;;;;;;0.83;100.00;83162.16;5113468;28;20183;-62
2024/01/27 03:23:36;;;;;;;34.03;22.10;;;;;;;0.91;100.00;81233.75;5114043;28;20430;-64
2024/01/27 03:26:04;;;;;;;32.13;21.47;;;;;;;0.93;100.00;79872.88;5113563;28;20183;-63
2024/01/27 03:28:31;;;;;;;34.10;21.53;;;;;;;1.02;100.00;78814.34;5113383;28;20214;-63
2024/01/27 03:30:59;;;;;;;36.30;21.93;;;;;;;0.87;100.00;78583.28;5112586;28;20187;-63
2024/01/27 03:33:29;;;;;;;40.60;23.27;;;;;;;1.02;100.00;80352.81;5113388;28;20226;-65
2024/01/27 03:35:56;;;;;;;43.03;24.43;;;;;;;0.62;100.00;82318.88;5113749;28;20709;-62
2024/01/27 03:38:23;;;;;;;48.10;25.13;;;;;;;0.70;100.00;80464.47;5113501;28;20561;-62
2024/01/27 03:40:50;;;;;;;43.77;22.47;;;;;;;0.77;100.00;80495.03;5113216;28;20271;-63
2024/01/27 03:43:17;;;;;;;38.93;22.03;;;;;;;0.79;100.00;79440.28;5113093;28;20229;-62
2024/01/27 03:45:45;;;;;;;39.23;21.97;;;;;;;0.80;100.00;78068.25;5113636;27;20248;-63
2024/01/27 03:48:12;;;;;;;43.93;23.33;;;;;;;0.74;100.00;79205.19;5113303;28;20275;-63
2024/01/27 03:50:40;;;;;;;36.63;22.70;;;;;;;0.81;100.00;78663.84;5113125;28;20191;-63
2024/01/27 03:53:07;;;;;;;41.47;23.20;;;;;;;0.83;100.00;79093.56;5113197;28;20187;-63
2024/01/27 03:55:35;;;;;;;28.10;19.30;;;;;;;0.93;100.00;78609.03;5112833;28;20227;-64
2024/01/27 03:58:02;;;;;;;36.33;21.67;;;;;;;0.94;100.00;77971.41;5113137;28;20196;-63
2024/01/27 04:00:32;;;;;;;30.80;21.13;;;;;;;0.95;100.00;78517.97;5112828;28;20270;-63
2024/01/27 04:02:59;;;;;;;27.13;18.40;;;;;;;0.92;100.00;78260.53;5113266;28;20235;-62
2024/01/27 04:05:27;;;;;;;31.43;18.60;;;;;;;0.89;100.00;78291.69;5112831;28;20209;-63
2024/01/27 04:07:55;;;;;;;36.47;18.50;;;;;;;1.07;100.00;77526.00;5113202;28;20183;-64
2024/01/27 04:10:23;;;;;;;25.67;18.40;;;;;;;1.12;100.00;77738.34;5113149;28;20198;-63
2024/01/27 04:12:50;;;;;;;33.83;18.50;;;;;;;1.17;100.00;77416.13;5112889;28;20187;-63
2024/01/27 04:15:17;;;;;;;30.33;18.33;;;;;;;1.10;100.00;79185.81;5113051;28;20240;-64
2024/01/27 04:17:44;;;;;;;29.27;19.47;;;;;;;1.09;100.00;81185.97;5113334;28;20240;-62
2024/01/27 04:20:12;;;;;;;26.43;18.63;;;;;;;0.84;100.00;81848.31;5112923;28;20256;-62
2024/01/27 04:22:40;;;;;;;22.60;15.90;;;;;;;1.01;100.00;79722.16;5112891;28;20626;-63
2024/01/27 04:25:09;;;;;;;17.90;14.73;;;;;;;1.15;100.00;76661.28;5112377;28;20269;-63
2024/01/27 04:27:39;;;;;;;22.43;15.50;;;;;;;1.21;100.00;74314.81;5112332;28;20236;-62
2024/01/27 04:30:07;;;;;;;24.30;15.57;;;;;;;1.03;100.00;75734.50;5112363;28;20211;-63
2024/01/27 04:32:35;;;;;;;19.87;14.50;;;;;;;1.15;100.00;75069.44;5112806;28;20183;-62
2024/01/27 04:35:03;;;;;;;22.40;14.83;;;;;;;1.11;100.00;77740.19;5112226;28;20188;-63
2024/01/27 04:37:30;;;;;;;19.03;14.80;;;;;;;0.98;100.00;80055.28;5112231;28;20256;-62
2024/01/27 04:39:57;;;;;;;18.27;15.03;;;;;;;0.94;100.00;79921.41;5112463;28;20180;-64
2024/01/27 04:42:25;;;;;;;20.10;13.17;;;;;;;1.04;100.00;77929.53;5112074;28;20183;-63
2024/01/27 04:44:52;;;;;;;15.50;13.20;;;;;;;1.10;100.00;75095.66;5112405;28;20244;-63
2024/01/27 04:47:19;;;;;;;18.03;14.20;;;;;;;1.20;100.00;74045.22;5112095;28;20187;-63
2024/01/27 04:49:46;;;;;;;16.13;14.47;;;;;;;1.07;100.00;75186.63;5111948;28;20207;-63
2024/01/27 04:52:13;;;;;;;21.13;14.67;;;;;;;1.15;100.00;73656.78;5112253;28;20203;-63
2024/01/27 04:54:40;;;;;;;19.37;14.70;;;;;;;0.92;100.00;75577.47;5111798;28;20285;-64
2024/01/27 04:57:07;;;;;;;21.73;15.30;;;;;;;0.53;100.00;74628.03;5112330;28;20506;-63
2024/01/27 04:59:36;;;;;;;22.30;14.57;;;;;;;0.83;100.00;73111.84;5112070;28;20240;-64
2024/01/27 05:02:03;;;;;;;19.73;14.87;;;;;;;1.00;100.00;72911.03;5112302;28;20207;-64
2024/01/27 05:04:31;;;;;;;14.27;12.83;;;;;;;1.09;100.00;72722.03;5112346;28;20213;-64
2024/01/27 05:06:58;;;;;;;16.67;13.20;;;;;;;1.14;100.00;73019.78;5111971;28;20184;-62
2024/01/27 05:09:25;;;;;;;14.60;13.27;;;;;;;1.17;100.00;73822.72;5111828;28;20207;-63
2024/01/27 05:11:53;;;;;;;24.33;14.47;;;;;;;1.28;100.00;74245.88;5112213;28;20286;-64
2024/01/27 05:14:21;;;;;;;21.80;14.23;;;;;;;1.15;100.00;77651.78;5111967;28;20242;-64
2024/01/27 05:16:49;;;;;;;15.97;13.03;;;;;;;1.23;100.00;80539.94;5111880;28;20192;-64
2024/01/27 05:19:17;;;;;;;19.10;14.03;;;;;;;1.26;100.00;82342.84;5111986;28;20195;-63
2024/01/27 05:21:44;;;;;;;25.50;15.40;;;;;;;1.15;100.00;83015.09;5111780;28;20194;-63
2024/01/27 05:24:12;;;;;;;18.87;14.37;;;;;;;1.15;100.00;80788.19;5111857;28;20187;-64
2024/01/27 05:26:39;;;;;;;23.80;14.97;;;;;;;1.23;100.00;79525.16;5112147;28;20184;-63
2024/01/27 05:29:06;;;;;;;17.33;15.50;;;;;;;1.25;100.00;77937.66;5111714;28;20207;-64
2024/01/27 05:31:33;;;;;;;24.40;17.50;;;;;;;1.19;100.00;78128.38;5112004;28;20611;-63
2024/01/27 05:34:01;;;;;;;19.47;15.07;;;;;;;1.28;100.00;77027.53;5111786;28;20615;-65
2024/01/27 05:36:28;;;;;;;16.37;14.77;;;;;;;1.38;100.00;75496.72;5112003;28;20240;-62
2024/01/27 05:38:55;;;;;;;22.53;16.00;;;;;;;1.48;100.00;72357.63;5111685;28;20184;-64
2024/01/27 05:41:27;;;;;;;18.30;15.90;;;;;;;1.63;100.00;69511.50;5111844;28;20183;-63
2024/01/27 05:43:54;;;;;;;46.70;30.57;;;;;;;1.60;100.00;69854.53;5111836;28;20188;-64
2024/01/27 05:46:21;;;;;;;38.50;22.53;;;;;;;1.76;100.00;71495.03;5111554;28;20247;-64
2024/01/27 05:48:48;;;;;;;21.20;15.87;;;;;;;1.86;100.00;70436.44;5111504;28;20203;-63
2024/01/27 05:51:16;;;;;;;28.63;20.20;;;;;;;2.02;100.00;68215.81;5111455;28;20209;-64
2024/01/27 05:53:43;;;;;;;40.17;23.70;;;;;;;2.00;100.00;67935.16;5114367;28;20565;-63
2024/01/27 05:56:11;;;;;;;26.13;20.30;;;;;;;2.22;100.00;68028.34;5115070;28;20235;-64
2024/01/27 05:58:38;;;;;;;26.37;19.10;;;;;;;2.26;100.00;68508.72;5115233;28;20184;-63
2024/01/27 06:01:05;;;;;;;21.70;16.97;;;;;;;2.26;100.00;70452.50;5115222;28;20252;-65
2024/01/27 06:03:32;;;;;;;19.67;15.40;;;;;;;2.20;100.00;74630.28;5115745;28;20629;-63
2024/01/27 06:05:59;;;;;;;16.53;13.73;;;;;;;2.19;100.00;76646.59;5115447;28;20191;-64
2024/01/27 06:08:28;;;;;;;22.27;15.27;;;;;;;2.12;100.00;77816.53;5115236;28;20179;-64
2024/01/27 06:10:55;;;;;;;20.13;16.00;;;;;;;2.04;100.00;79517.16;5115231;28;20724;-62
2024/01/27 06:13:22;;;;;;;34.30;22.73;;;;;;;1.71;100.00;75959.44;5115056;28;20187;-63
2024/01/27 06:15:49;;;;;;;40.20;26.27;;;;;;;1.68;100.00;71925.06;5115036;28;20180;-64
2024/01/27 06:18:16;;;;;;;53.07;28.60;;;;;;;1.54;100.00;67092.84;5115512;28;20331;-63
2024/01/27 06:20:43;;;;;;;48.97;28.10;;;;;;;1.60;100.00;60850.34;5114988;28;20176;-62
2024/01/27 06:23:10;;;;;;;51.90;28.33;;;;;;;1.36;100.00;59440.75;5114951;28;20183;-63
2024/01/27 06:25:38;;;;;;;46.87;28.23;;;;;;;1.32;100.00;54949.06;5114808;28;20218;-63
2024/01/27 06:28:06;;;;;;;53.63;29.00;;;;;;;1.59;100.00;54316.28;5114761;28;20215;-63
2024/01/27 06:30:33;;;;;;;55.40;29.37;;;;;;;1.63;100.00;54640.19;5114583;28;20268;-63
2024/01/27 06:33:00;;;;;;;52.33;28.93;;;;;;;1.71;100.00;55490.91;5114766;28;20195;-63
2024/01/27 06:35:27;;;;;;;56.53;27.07;;;;;;;1.87;100.00;56862.66;5114695;28;20252;-64
2024/01/27 06:37:54;;;;;;;46.97;27.37;;;;;;;1.98;100.00;58185.97;5115221;28;20599;-63
2024/01/27 06:40:21;;;;;;;57.37;27.07;;;;;;;2.05;100.00;60193.50;5114945;28;20256;-64
2024/01/27 06:42:50;;;;;;;48.13;25.87;;;;;;;2.29;100.00;62139.69;5114881;28;20646;-64
2024/01/27 06:45:17;;;;;;;51.70;28.93;;;;;;;2.20;100.00;65961.28;5114568;28;20193;-63
2024/01/27 06:47:44;;;;;;;50.30;28.57;;;;;;;2.26;100.00;68269.91;5114619;28;20233;-64
2024/01/27 06:50:13;;;;;;;44.83;28.37;;;;;;;2.70;100.00;66955.13;5114539;28;20200;-63
2024/01/27 06:52:40;;;;;;;44.57;27.37;;;;;;;2.98;100.00;66033.72;5114252;28;20188;-65
2024/01/27 06:55:10;;;;;;;43.03;24.40;;;;;;;3.39;100.00;63537.25;5114593;28;20260;-63
2024/01/27 06:57:37;;;;;;;31.00;20.57;;;;;;;3.72;100.00;64199.66;5114420;28;20202;-63
2024/01/27 07:00:07;;;;;;;35.83;19.90;;;;;;;4.03;100.00;67982.34;5114159;28;20187;-65
2024/01/27 07:02:34;;;;;;;30.97;18.50;;;;;;;4.30;100.00;71243.59;5114555;27;20668;-63
2024/01/27 07:05:01;;;;;;;32.17;18.60;;;;;;;4.54;100.00;76122.47;5114231;28;20183;-63
2024/01/27 07:07:29;;;;;;;23.77;17.93;;;;;;;4.98;100.00;84137.56;5114469;28;20635;-64
2024/01/27 07:09:57;;;;;;;24.20;18.73;;;;;;;5.37;100.00;113656.66;5114445;28;20225;-64
2024/01/27 07:12:24;;;;;;;19.43;16.80;;;;;;;5.30;100.00;147383.94;5113947;28;20184;-63
2024/01/27 07:14:52;;;;;;;23.83;16.00;;;;;;;5.12;100.00;147338.63;5114163;28;20248;-63
2024/01/27 07:17:20;;;;;;;19.90;14.23;;;;;;;5.31;100.00;147385.16;5113676;28;20191;-62
2024/01/27 07:19:47;;;;;;;21.27;14.33;;;;;;;5.32;100.00;147387.69;5114093;28;20603;-63
2024/01/27 07:22:15;;;;;;;15.17;13.27;;;;;;;5.34;100.00;147394.00;5113695;28;20187;-63
2024/01/27 07:24:42;;;;;;;20.47;14.10;;;;;;;5.16;100.00;147348.69;5113980;28;20191;-62
2024/01/27 07:27:09;;;;;;;20.63;13.67;;;;;;;5.20;100.00;147357.47;5113534;28;20197;-63
2024/01/27 07:29:36;;;;;;;23.43;15.30;;;;;;;5.23;100.00;147365.03;5113383;28;20260;-62
2024/01/27 07:32:03;;;;;;;23.33;14.83;;;;;;;4.99;100.00;147305.91;5113838;28;20561;-64
2024/01/27 07:34:31;;;;;;;23.57;16.37;;;;;;;5.00;100.00;141362.97;5113353;28;20187;-64
2024/01/27 07:36:58;;;;;;;20.07;15.57;;;;;;;4.96;100.00;137830.69;5113548;28;20187;-63
2024/01/27 07:39:25;;;;;;;20.47;15.90;;;;;;;5.02;100.00;137220.09;5113637;28;20622;-63
2024/01/27 07:41:53;;;;;;;24.13;17.27;;;;;;;5.04;100.00;144934.00;5113182;28;20630;-63
2024/01/27 07:44:20;;;;;;;24.27;17.13;;;;;;;4.98;100.00;146165.91;5113447;28;20183;-64
2024/01/27 07:46:47;;;;;;;23.00;17.53;;;;;;;5.26;100.00;144763.94;5113085;28;20187;-64
2024/01/27 07:49:15;;;;;;;27.40;17.53;;;;;;;5.32;100.00;147387.69;5113126;28;20187;-63
2024/01/27 07:51:43;;;;;;;20.73;16.97;;;;;;;5.51;100.00;147436.78;5113610;28;20264;-63
2024/01/27 07:54:10;;;;;;;25.73;17.73;;;;;;;5.39;100.00;147406.53;5113149;28;20187;-64
2024/01/27 07:56:38;;;;;;;22.63;17.03;;;;;;;5.29;100.00;147380.13;5113229;28;20626;-64
2024/01/27 07:59:05;;;;;;;24.67;18.10;;;;;;;5.18;100.00;147353.69;5113289;28;20644;-63
2024/01/27 08:01:32;;;;;;;32.00;20.03;;;;;;;5.03;100.00;143250.41;5113179;28;20186;-63
2024/01/27 08:04:01;;;;;;;29.33;20.37;;;;;;;4.87;100.00;124218.88;5112771;28;20183;-63
2024/01/27 08:06:30;;;;;;;31.73;19.60;;;;;;;5.18;100.00;122311.94;5112707;28;20224;-64
2024/01/27 08:08:59;;;;;;;34.13;23.03;;;;;;;5.14;100.00;119350.81;5113036;28;20565;-64
2024/01/27 08:11:26;;;;;;;47.50;26.60;;;;;;;5.14;100.00;129205.19;5112718;28;20211;-64
2024/01/27 08:13:53;;;;;;;41.17;26.73;;;;;;;5.01;100.00;119981.38;5112839;28;20630;-63
2024/01/27 08:16:21;;;;;;;41.63;26.37;;;;;;;4.89;100.00;108496.09;5112132;28;20202;-63
2024/01/27 08:18:48;;;;;;;39.43;27.43;;;;;;;4.86;100.00;92834.78;5112742;28;20272;-63
2024/01/27 08:21:15;;;;;;;42.40;28.90;;;;;;;4.91;100.00;89589.72;5112974;28;20187;-63
2024/01/27 08:23:42;;;;;;;48.37;30.47;;;;;;;4.93;100.00;86992.47;5112901;28;20611;-64
2024/01/27 08:26:11;;;;;;;52.93;30.93;;;;;;;4.86;100.00;84059.34;5112593;28;20183;-64
2024/01/27 08:28:38;;;;;;;48.53;31.43;;;;;;;4.92;100.00;82769.72;5113416;28;20188;-63
2024/01/27 08:31:05;;;;;;;51.30;32.90;;;;;;;4.93;100.00;85367.53;5112439;28;20242;-63
2024/01/27 08:33:32;;;;;;;46.63;32.40;;;;;;;5.12;100.00;86044.47;5112522;28;20183;-64
2024/01/27 08:35:59;;;;;;;51.97;32.07;;;;;;;5.06;100.00;92865.81;5112773;28;20187;-63
2024/01/27 08:38:26;;;;;;;55.93;30.97;;;;;;;5.18;100.00;93861.09;5112300;28;20233;-63
2024/01/27 08:40:53;;;;;;;49.73;32.83;;;;;;;5.34;100.00;100083.00;5112401;28;20232;-64
2024/01/27 08:43:22;;;;;;;57.10;32.83;;;;;;;5.39;100.00;105317.72;5112088;28;20187;-64
2024/01/27 08:45:49;;;;;;;55.00;32.57;;;;;;;5.51;100.00;106974.50;5112783;28;20244;-65
2024/01/27 08:48:16;;;;;;;46.37;32.60;;;;;;;5.54;100.00;109924.31;5112159;28;20240;-64
2024/01/27 08:50:43;;;;;;;53.43;34.37;;;;;;;5.49;100.00;127308.03;5112030;28;20209;-63
2024/01/27 08:53:10;;;;;;;59.00;36.63;;;;;;;5.68;100.00;130641.81;5112275;28;20229;-62
2024/01/27 08:55:37;;;;;;;55.87;33.93;;;;;;;5.85;100.00;137384.03;5111900;28;20230;-63
2024/01/27 08:58:05;;;;;;;50.97;32.23;;;;;;;5.94;100.00;142053.75;5112296;28;20503;-63
2024/01/27 09:00:33;;;;;;;49.53;32.20;;;;;;;6.11;100.00;144648.56;5112115;28;20607;-64
2024/01/27 09:03:01;;;;;;;45.20;31.43;;;;;;;6.17;100.00;147600.50;5112457;28;20199;-63
2024/01/27 09:05:28;;;;;;;47.93;30.33;;;;;;;6.41;100.00;147660.94;5112160;28;20180;-63
2024/01/27 09:07:56;;;;;;;46.90;29.10;;;;;;;6.60;100.00;147706.31;5111979;28;20184;-63
2024/01/27 09:10:23;;;;;;;39.47;27.63;;;;;;;6.92;100.00;147785.72;5111926;28;20215;-64
2024/01/27 09:12:50;;;;;;;39.80;25.97;;;;;;;7.26;100.00;147872.66;5112009;28;20187;-64
2024/01/27 09:15:17;;;;;;;35.43;25.03;;;;;;;7.54;100.00;147940.75;5112187;28;20600;-63
2024/01/27 09:17:45;;;;;;;32.37;23.63;;;;;;;7.63;100.00;147963.47;5112359;28;20187;-63
2024/01/27 09:20:13;;;;;;;34.93;22.27;;;;;;;7.74;100.00;147992.44;5112099;28;20180;-62
2024/01/27 09:22:41;;;;;;;28.67;21.13;;;;;;;7.95;100.00;148042.91;5111882;28;20183;-63
2024/01/27 09:25:09;;;;;;;21.27;18.97;;;;;;;7.93;100.00;148037.88;5111730;28;20198;-62
2024/01/27 09:27:36;;;;;;;28.73;19.17;;;;;;;7.85;100.00;148018.91;5112517;28;20184;-63
2024/01/27 09:30:04;;;;;;;22.73;18.97;;;;;;;7.74;100.00;147992.44;5115873;28;20199;-63
2024/01/27 09:32:31;;;;;;;24.27;18.60;;;;;;;7.85;100.00;148018.91;5115836;27;20283;-64
2024/01/27 09:35:00;;;;;;;22.50;17.43;;;;;;;7.86;100.00;148020.19;5116047;28;20240;-63
2024/01/27 09:37:27;;;;;;;21.67;17.33;;;;;;;7.64;100.00;147967.22;5115858;27;20191;-66
2024/01/27 09:39:54;;;;;;;24.43;19.13;;;;;;;7.69;100.00;147979.84;5115620;28;20252;-64
2024/01/27 09:42:22;;;;;;;26.50;19.33;;;;;;;7.57;100.00;147949.56;5116009;28;20607;-62
2024/01/27 09:44:50;;;;;;;25.27;20.43;;;;;;;7.66;100.00;147972.28;5115713;28;20267;-61
2024/01/27 09:47:17;;;;;;;34.80;21.87;;;;;;;7.58;100.00;147952.13;5115797;28;20553;-63
2024/01/27 09:49:45;;;;;;;36.60;21.90;;;;;;;7.50;100.00;147930.69;5115654;28;20183;-63
2024/01/27 09:52:14;;;;;;;32.73;19.77;;;;;;;7.61;100.00;147958.41;5115913;28;20186;-64
2024/01/27 09:54:41;;;;;;;34.20;22.07;;;;;;;7.60;100.00;147955.88;5115485;28;20283;-62
2024/01/27 09:57:11;;;;;;;40.03;25.63;;;;;;;7.66;100.00;147971.00;5115701;28;20187;-63
2024/01/27 09:59:44;;;;;;;36.93;23.87;;;;;;;7.62;100.00;147960.94;5115599;27;20183;-63
2024/01/27 10:02:13;;;;;;;42.37;25.20;;;;;;;7.49;100.00;147929.41;5115574;28;20199;-63
2024/01/27 10:04:42;;;;;;;36.20;23.33;;;;;;;7.45;100.00;147918.06;5115436;28;20195;-63
2024/01/27 10:07:10;;;;;;;25.37;18.07;;;;;;;7.38;100.00;147900.41;5115456;28;20603;-63
2024/01/27 10:09:40;;;;;;;20.03;15.10;;;;;;;7.38;100.00;147901.69;5115410;28;20565;-62
2024/01/27 10:12:10;;;;;;;21.00;14.67;;;;;;;7.53;100.00;147938.22;5115242;28;20252;-64
2024/01/27 10:14:41;;;;;;;29.87;14.90;;;;;;;7.53;100.00;147939.50;5115190;28;20187;-63
2024/01/27 10:17:11;;;;;;;25.63;15.47;;;;;;;7.55;100.00;147943.28;5115049;28;20187;-64
2024/01/27 10:19:38;;;;;;;24.17;14.90;;;;;;;7.55;100.00;147944.56;5115536;28;20633;-63
2024/01/27 10:22:05;;;;;;;31.40;16.80;;;;;;;7.68;100.00;147976.09;5114753;28;20193;-64
2024/01/27 10:24:33;;;;;;;24.10;16.20;;;;;;;7.65;100.00;147969.75;5114667;28;20295;-64
2024/01/27 10:27:03;;;;;;;18.77;15.97;;;;;;;7.68;100.00;147977.31;5114718;28;20192;-64
2024/01/27 10:29:30;;;;;;;22.30;16.53;;;;;;;7.82;100.00;148012.63;5114861;28;20193;-66
2024/01/27 10:32:07;;;;;;;28.47;15.40;;;;;;;7.67;100.00;147973.56;5114601;28;20207;-64
2024/01/27 10:34:34;;;;;;;21.33;14.20;;;;;;;7.81;100.00;148010.09;5114920;28;20285;-63
2024/01/27 10:37:01;;;;;;;22.63;15.27;;;;;;;7.75;100.00;147993.72;5114448;28;20186;-64
2024/01/27 10:39:29;;;;;;;19.47;13.23;;;;;;;7.93;100.00;148039.13;5114028;28;20192;-63
2024/01/27 10:41:56;;;;;;;20.10;14.87;;;;;;;8.05;100.00;148069.41;5114982;28;20253;-63
2024/01/27 10:44:25;;;;;;;17.27;15.47;;;;;;;7.90;100.00;148030.28;5114751;28;20183;-64
2024/01/27 10:46:55;;;;;;;30.43;17.00;;;;;;;8.05;100.00;148068.13;5114595;28;20622;-64
2024/01/27 10:49:24;;;;;;;34.87;16.90;;;;;;;8.05;100.00;148068.13;5114360;28;20183;-63
2024/01/27 10:51:55;;;;;;;26.87;16.67;;;;;;;8.00;100.00;148055.50;5114358;28;20207;-63
2024/01/27 10:54:25;;;;;;;19.33;16.60;;;;;;;7.97;100.00;148047.97;5114038;28;20276;-64
2024/01/27 10:56:54;;;;;;;32.07;16.40;;;;;;;8.03;100.00;148064.34;5114561;28;20646;-63
2024/01/27 10:59:23;;;;;;;19.77;15.50;;;;;;;8.03;100.00;148063.06;5114115;28;20714;-63
2024/01/27 11:01:53;;;;;;;31.43;17.67;;;;;;;7.95;100.00;148042.91;5114407;28;20273;-63
2024/01/27 11:04:21;;;;;;;23.57;19.17;;;;;;;7.86;100.00;148020.19;5114309;28;20187;-63
2024/01/27 11:06:49;;;;;;;30.27;21.40;;;;;;;7.77;100.00;147998.75;5113975;28;20240;-63
2024/01/27 11:09:16;;;;;;;34.10;23.97;;;;;;;7.71;100.00;147984.91;5113970;28;20184;-63
2024/01/27 11:11:45;;;;;;;26.50;21.87;;;;;;;7.71;100.00;147984.91;5114194;28;20615;-63
2024/01/27 11:14:12;;;;;;;11.67;9.87;;;;;;;7.75;100.00;147995.00;5113776;28;20179;-63
2024/01/27 11:16:44;;;;;;;15.43;8.20;;;;;;;7.46;100.00;147921.84;5113839;28;20179;-63